Aeroporto :
LOGIN :

Iscrizione | Disclaimer

   EN    FR    IT 

 










Sommario :    VFR   VFR Marginale   IFR   IFR Intensivo   IFR Molto Intensivo
Visibilità : 
Base nubi : 
>= 8 km
>= 3000ft
5 / 8 km
1000 / 3000 ft
1500m / 5 km
500 / 1000 ft
800 / 1500m
200 / 500 ft
< 800m
< 200 ft
Simboli :   Temporali  Nebbia  Neve Forte  Precipitazioni Forti  Vento > 20 kt
SIGMETs :   Varie  Temporali  Ghiacco  Turbolenza  Onda orograficha  Ceneri Vulcaniche






- Altitudine del aeroporto : 461 ft
- Codice IATA : WIE


ETOU - Wiesbaden Army

ULTIMO METAR :
  • 250215Z AUTO 03004KT 9999 FEW034 SCT042 SCT055 OVC070 16/15 A3007 RMK AO2 RAE15RAB15 SLP183 $

METARs OBSOLETI :
  • 250156Z AUTO 02004KT 9999 -RA FEW033 SCT042 BKN055 BKN075 16/15 A3007 RMK AO2 RAE0058DZB0058E07RAB07E39RAB39E39DZB43E46RAB46 SLP183 P0003 T01580153 $
  • 250143Z AUTO 01003KT 9999 -DZ SCT060 BKN080 16/15 A3008 RMK AO2 RAE0058DZB0058E07RAB07E39RAB39E39DZB43 SLP186 $
  • 250056Z AUTO 33003KT 9999 -RA BKN033 16/16 A3007 RMK AO2 SLP183 P0005 T01600158 $
  • 250026Z AUTO 00000KT 8000 +RA BR SCT019 BKN030 OVC037 16/16 A3007 RMK AO2 SLP183 $
  • 250006Z AUTO 00000KT 9999 -RA BKN017 BKN040 16/16 A3008 RMK AO2 CIG 017V043 BKN017 V FEW SLP186 $
  • 242356Z AUTO 00000KT 9000 -RA BR FEW017 FEW031 BKN047 OVC060 16/16 A3008 RMK AO2 RAB2257 SLP186 P0008 60008 T01610156 10200 20161 51004 $

TAF AMD TAF ETOU
Valido dal 24 a 19 ore il 25 a 18 ore UTC


241958Z 2419/2518 VRB06KT 9999 BKN020 OVC060 QNH3004INS
BECMG 2500/2501 VRB06KT 9999 BKN015 OVC020 QNH3005INS
BECMG 2506/2507 26006KT 9999 BKN030 QNH3003INS TX21/2512Z TN15/2503Z LAST NO AMDS AFT 2420 NEXT 2504



MetMap, La meteo Aeronautica in un colpo d'occhio ! - Copyright ORBIFLY Dicembre 2007 - Disclaimer

ORBIFLY MET'MAP TEAM :

Programmazione e sviluppo : Alexandra Zaïnal
Concezione : Baudouin d'Aumeries
Aiuto per la programmazione : Marc-Olivier Méhu
Supporto tecnico e logistico : Manuel Goepfert
Aiuto per la traduzione : Arnaldo La Scala

Contatto : metmap@orbifly.com




FONTI E CREDITI :

   NOAA